sensor_id;sensor_type;location;lat;lon;timestamp;pressure;altitude;pressure_sealevel;temperature;humidity
66206;BME280;53009;52.490;4.976;2024-02-26T00:00:10;156000;;;6.3;9
66206;BME280;53009;52.490;4.976;2024-02-26T00:05:09;156000;;;6.3;9
66206;BME280;53009;52.490;4.976;2024-02-26T00:10:09;156000;;;6.4;9
66206;BME280;53009;52.490;4.976;2024-02-26T00:15:09;156000;;;6.4;9
66206;BME280;53009;52.490;4.976;2024-02-26T00:20:10;156000;;;6.4;8.8
66206;BME280;53009;52.490;4.976;2024-02-26T00:25:09;156000;;;6.4;8.8
66206;BME280;53009;52.490;4.976;2024-02-26T00:30:09;156000;;;6.4;8.7
66206;BME280;53009;52.490;4.976;2024-02-26T00:35:09;156000;;;6.4;8.7
66206;BME280;53009;52.490;4.976;2024-02-26T00:40:09;156000;;;6.4;8.6
66206;BME280;53009;52.490;4.976;2024-02-26T00:45:09;156000;;;6.3;8.7
66206;BME280;53009;52.490;4.976;2024-02-26T00:50:09;156000;;;6.3;8.7
66206;BME280;53009;52.490;4.976;2024-02-26T00:55:09;155900;;;6.3;8.7
66206;BME280;53009;52.490;4.976;2024-02-26T01:00:09;155900;;;6.3;8.8
66206;BME280;53009;52.490;4.976;2024-02-26T01:05:09;155900;;;6.3;8.7
66206;BME280;53009;52.490;4.976;2024-02-26T01:10:09;155900;;;6.2;8.8
66206;BME280;53009;52.490;4.976;2024-02-26T01:15:09;155900;;;6.2;8.8
66206;BME280;53009;52.490;4.976;2024-02-26T01:20:10;155900;;;6.2;8.9
66206;BME280;53009;52.490;4.976;2024-02-26T01:25:10;155900;;;6.2;8.9
66206;BME280;53009;52.490;4.976;2024-02-26T01:30:10;155900;;;6.2;8.9
66206;BME280;53009;52.490;4.976;2024-02-26T01:35:09;155900;;;6.1;9
66206;BME280;53009;52.490;4.976;2024-02-26T01:40:10;155900;;;6.2;8.9
66206;BME280;53009;52.490;4.976;2024-02-26T01:45:09;155900;;;6.1;9
66206;BME280;53009;52.490;4.976;2024-02-26T01:50:09;155900;;;6.1;9
66206;BME280;53009;52.490;4.976;2024-02-26T01:55:09;155900;;;6.1;9
66206;BME280;53009;52.490;4.976;2024-02-26T02:00:10;155900;;;6.1;9
66206;BME280;53009;52.490;4.976;2024-02-26T02:05:09;155900;;;6.1;9.1
66206;BME280;53009;52.490;4.976;2024-02-26T02:10:09;155900;;;6;9.1
66206;BME280;53009;52.490;4.976;2024-02-26T02:15:09;155900;;;6;9.1
66206;BME280;53009;52.490;4.976;2024-02-26T02:20:09;155800;;;6;9.2
66206;BME280;53009;52.490;4.976;2024-02-26T02:25:09;155800;;;6;9.1
66206;BME280;53009;52.490;4.976;2024-02-26T02:30:10;155800;;;6;9.1
66206;BME280;53009;52.490;4.976;2024-02-26T02:35:09;155800;;;6;9.2
66206;BME280;53009;52.490;4.976;2024-02-26T02:40:09;155800;;;6;9.2
66206;BME280;53009;52.490;4.976;2024-02-26T02:45:09;155800;;;5.9;9.2
66206;BME280;53009;52.490;4.976;2024-02-26T02:50:09;155800;;;5.9;9.2
66206;BME280;53009;52.490;4.976;2024-02-26T02:55:09;155800;;;5.9;9.2
66206;BME280;53009;52.490;4.976;2024-02-26T03:00:10;155800;;;5.9;9.3
66206;BME280;53009;52.490;4.976;2024-02-26T03:05:09;155800;;;5.9;9.3
66206;BME280;53009;52.490;4.976;2024-02-26T03:10:12;155800;;;5.8;9.5
66206;BME280;53009;52.490;4.976;2024-02-26T03:15:10;155800;;;5.8;9.6
66206;BME280;53009;52.490;4.976;2024-02-26T03:20:10;155800;;;5.8;9.5
66206;BME280;53009;52.490;4.976;2024-02-26T03:25:09;155800;;;5.8;9.5
66206;BME280;53009;52.490;4.976;2024-02-26T03:30:09;155800;;;5.8;9.6
66206;BME280;53009;52.490;4.976;2024-02-26T03:35:09;155800;;;5.8;9.7
66206;BME280;53009;52.490;4.976;2024-02-26T03:40:10;155800;;;5.8;9.7
66206;BME280;53009;52.490;4.976;2024-02-26T03:45:10;155800;;;5.8;9.7
66206;BME280;53009;52.490;4.976;2024-02-26T03:50:09;155800;;;5.8;9.7
66206;BME280;53009;52.490;4.976;2024-02-26T03:55:09;155800;;;5.8;9.7
66206;BME280;53009;52.490;4.976;2024-02-26T04:00:10;155800;;;5.8;9.7
66206;BME280;53009;52.490;4.976;2024-02-26T04:05:13;155800;;;5.8;9.7
66206;BME280;53009;52.490;4.976;2024-02-26T04:10:10;155800;;;5.7;9.6
66206;BME280;53009;52.490;4.976;2024-02-26T04:15:10;155800;;;5.8;9.6
66206;BME280;53009;52.490;4.976;2024-02-26T04:20:12;155800;;;5.8;9.6
66206;BME280;53009;52.490;4.976;2024-02-26T04:25:09;155800;;;5.8;9.7
66206;BME280;53009;52.490;4.976;2024-02-26T04:30:10;155800;;;5.8;9.7
66206;BME280;53009;52.490;4.976;2024-02-26T04:35:10;155800;;;5.8;9.7
66206;BME280;53009;52.490;4.976;2024-02-26T04:40:10;155800;;;5.8;9.7
66206;BME280;53009;52.490;4.976;2024-02-26T04:45:09;155700;;;5.8;9.7
66206;BME280;53009;52.490;4.976;2024-02-26T04:50:10;155700;;;5.8;9.7
66206;BME280;53009;52.490;4.976;2024-02-26T04:55:09;155700;;;5.8;9.9
66206;BME280;53009;52.490;4.976;2024-02-26T05:00:10;155700;;;5.8;10.1
66206;BME280;53009;52.490;4.976;2024-02-26T05:05:10;155700;;;5.8;10.2
66206;BME280;53009;52.490;4.976;2024-02-26T05:10:10;155700;;;5.7;10.2
66206;BME280;53009;52.490;4.976;2024-02-26T05:15:10;155700;;;5.6;10.3
66206;BME280;53009;52.490;4.976;2024-02-26T05:20:13;155700;;;5.6;10.3
66206;BME280;53009;52.490;4.976;2024-02-26T05:25:10;155700;;;5.6;10.3
66206;BME280;53009;52.490;4.976;2024-02-26T05:30:10;155700;;;5.6;10.3
66206;BME280;53009;52.490;4.976;2024-02-26T05:35:10;155700;;;5.5;10.3
66206;BME280;53009;52.490;4.976;2024-02-26T05:40:10;155700;;;5.5;10.3
66206;BME280;53009;52.490;4.976;2024-02-26T05:45:10;155700;;;5.5;10.3
66206;BME280;53009;52.490;4.976;2024-02-26T05:50:10;155700;;;5.5;10.3
66206;BME280;53009;52.490;4.976;2024-02-26T05:55:10;155700;;;5.4;10.1
66206;BME280;53009;52.490;4.976;2024-02-26T06:00:10;155800;;;5.4;10.1
66206;BME280;53009;52.490;4.976;2024-02-26T06:05:10;155800;;;5.4;10.1
66206;BME280;53009;52.490;4.976;2024-02-26T06:10:10;155800;;;5.4;10.2
66206;BME280;53009;52.490;4.976;2024-02-26T06:15:10;155800;;;5.4;10.1
66206;BME280;53009;52.490;4.976;2024-02-26T06:20:10;155800;;;5.4;10.1
66206;BME280;53009;52.490;4.976;2024-02-26T06:25:10;155800;;;5.4;10.1
66206;BME280;53009;52.490;4.976;2024-02-26T06:30:10;155800;;;5.3;10
66206;BME280;53009;52.490;4.976;2024-02-26T06:35:10;155900;;;5.3;9.9
66206;BME280;53009;52.490;4.976;2024-02-26T06:40:10;155900;;;5.3;9.8
66206;BME280;53009;52.490;4.976;2024-02-26T06:45:10;155900;;;5.3;9.7
66206;BME280;53009;52.490;4.976;2024-02-26T06:50:11;155900;;;5.3;9.6
66206;BME280;53009;52.490;4.976;2024-02-26T06:55:10;155900;;;5.4;9.7
66206;BME280;53009;52.490;4.976;2024-02-26T07:00:10;155900;;;5.4;9.7
66206;BME280;53009;52.490;4.976;2024-02-26T07:05:11;155900;;;5.4;9.6
66206;BME280;53009;52.490;4.976;2024-02-26T07:10:10;155900;;;5.4;9.7
66206;BME280;53009;52.490;4.976;2024-02-26T07:15:10;156000;;;5.3;9.6
66206;BME280;53009;52.490;4.976;2024-02-26T07:20:10;156000;;;5.4;9.7
66206;BME280;53009;52.490;4.976;2024-02-26T07:25:10;156000;;;5.3;9.7
66206;BME280;53009;52.490;4.976;2024-02-26T07:30:10;156000;;;5.3;9.7
66206;BME280;53009;52.490;4.976;2024-02-26T07:35:10;156000;;;5.3;9.6
66206;BME280;53009;52.490;4.976;2024-02-26T07:40:10;156000;;;5.3;9.4
66206;BME280;53009;52.490;4.976;2024-02-26T07:45:10;156000;;;5.3;9.4
66206;BME280;53009;52.490;4.976;2024-02-26T07:50:10;156000;;;5.3;9.4
66206;BME280;53009;52.490;4.976;2024-02-26T07:55:10;156100;;;5.4;9.4
66206;BME280;53009;52.490;4.976;2024-02-26T08:00:10;156100;;;5.4;9.4
66206;BME280;53009;52.490;4.976;2024-02-26T08:05:10;156100;;;5.4;9.3
66206;BME280;53009;52.490;4.976;2024-02-26T08:10:10;156100;;;5.4;9.3
66206;BME280;53009;52.490;4.976;2024-02-26T08:15:10;156100;;;5.5;9.3
66206;BME280;53009;52.490;4.976;2024-02-26T08:20:13;156100;;;5.5;9.3
66206;BME280;53009;52.490;4.976;2024-02-26T08:25:10;156200;;;5.4;9.3
66206;BME280;53009;52.490;4.976;2024-02-26T08:30:10;156200;;;5.5;9.3
66206;BME280;53009;52.490;4.976;2024-02-26T08:35:10;156200;;;5.4;9.3
66206;BME280;53009;52.490;4.976;2024-02-26T08:40:10;156200;;;5.4;9.4
66206;BME280;53009;52.490;4.976;2024-02-26T08:45:10;156200;;;5.4;9.5
66206;BME280;53009;52.490;4.976;2024-02-26T08:50:10;156200;;;5.5;9.4
66206;BME280;53009;52.490;4.976;2024-02-26T08:55:10;156200;;;5.6;9.3
66206;BME280;53009;52.490;4.976;2024-02-26T09:00:13;156200;;;5.5;9.3
66206;BME280;53009;52.490;4.976;2024-02-26T09:05:10;156200;;;5.6;9.3
66206;BME280;53009;52.490;4.976;2024-02-26T09:10:10;156300;;;5.7;9.1
66206;BME280;53009;52.490;4.976;2024-02-26T09:15:10;156300;;;5.7;9.2
66206;BME280;53009;52.490;4.976;2024-02-26T09:20:10;156300;;;5.8;9
66206;BME280;53009;52.490;4.976;2024-02-26T09:25:10;156300;;;5.9;9
66206;BME280;53009;52.490;4.976;2024-02-26T09:30:10;156300;;;6;8.9
66206;BME280;53009;52.490;4.976;2024-02-26T09:35:10;156300;;;6;8.7
66206;BME280;53009;52.490;4.976;2024-02-26T09:40:10;156300;;;6;8.6
66206;BME280;53009;52.490;4.976;2024-02-26T09:45:11;156300;;;6.1;8.7
66206;BME280;53009;52.490;4.976;2024-02-26T09:50:10;156300;;;6.1;8.5
66206;BME280;53009;52.490;4.976;2024-02-26T09:55:10;156300;;;6.1;8.5
66206;BME280;53009;52.490;4.976;2024-02-26T10:00:10;156300;;;6.1;8.8
66206;BME280;53009;52.490;4.976;2024-02-26T10:05:10;156300;;;6.1;8.8
66206;BME280;53009;52.490;4.976;2024-02-26T10:10:10;156300;;;6.1;8.7
66206;BME280;53009;52.490;4.976;2024-02-26T10:15:10;156300;;;6.2;8.6
66206;BME280;53009;52.490;4.976;2024-02-26T10:20:11;156300;;;6.2;8.7
66206;BME280;53009;52.490;4.976;2024-02-26T10:25:10;156300;;;6.2;8.6
66206;BME280;53009;52.490;4.976;2024-02-26T10:30:15;156300;;;6.1;8.5
66206;BME280;53009;52.490;4.976;2024-02-26T10:35:10;156300;;;6.1;8.6
66206;BME280;53009;52.490;4.976;2024-02-26T10:40:10;156300;;;6.2;8.5
66206;BME280;53009;52.490;4.976;2024-02-26T10:45:13;156300;;;6.1;8.6
66206;BME280;53009;52.490;4.976;2024-02-26T10:50:10;156300;;;6.2;8.7
66206;BME280;53009;52.490;4.976;2024-02-26T10:55:13;156300;;;6.3;8.8
66206;BME280;53009;52.490;4.976;2024-02-26T11:00:10;156300;;;6.2;8.7
66206;BME280;53009;52.490;4.976;2024-02-26T11:05:10;156300;;;6.1;8.5
66206;BME280;53009;52.490;4.976;2024-02-26T11:10:10;156200;;;6.2;8.5
66206;BME280;53009;52.490;4.976;2024-02-26T11:15:10;156200;;;6.3;8.7
66206;BME280;53009;52.490;4.976;2024-02-26T11:20:10;156200;;;6.3;8.5
66206;BME280;53009;52.490;4.976;2024-02-26T11:25:10;156200;;;6.3;8.4
66206;BME280;53009;52.490;4.976;2024-02-26T11:30:10;156200;;;6.3;8.2
66206;BME280;53009;52.490;4.976;2024-02-26T11:35:10;156200;;;6.4;8.4
66206;BME280;53009;52.490;4.976;2024-02-26T11:40:11;156200;;;6.4;8.4
66206;BME280;53009;52.490;4.976;2024-02-26T11:50:43;156200;;;6.4;8.2
66206;BME280;53009;52.490;4.976;2024-02-26T11:55:10;156200;;;6.6;8.7
66206;BME280;53009;52.490;4.976;2024-02-26T12:00:11;156200;;;6.5;8.1
66206;BME280;53009;52.490;4.976;2024-02-26T12:05:11;156200;;;6.6;8.3
66206;BME280;53009;52.490;4.976;2024-02-26T12:10:26;156200;;;6.5;8
66206;BME280;53009;52.490;4.976;2024-02-26T12:15:10;156200;;;6.7;8.1
66206;BME280;53009;52.490;4.976;2024-02-26T12:20:10;156200;;;6.7;7.9
66206;BME280;53009;52.490;4.976;2024-02-26T12:25:10;156200;;;6.9;7.9
66206;BME280;53009;52.490;4.976;2024-02-26T12:30:11;156200;;;6.9;8.2
66206;BME280;53009;52.490;4.976;2024-02-26T12:35:10;156200;;;7;8.1
66206;BME280;53009;52.490;4.976;2024-02-26T12:40:11;156200;;;7;7.9
66206;BME280;53009;52.490;4.976;2024-02-26T12:45:11;156200;;;7;8
66206;BME280;53009;52.490;4.976;2024-02-26T12:50:10;156200;;;6.9;8.1
66206;BME280;53009;52.490;4.976;2024-02-26T12:55:11;156200;;;6.9;8
66206;BME280;53009;52.490;4.976;2024-02-26T13:00:11;156200;;;6.9;8.4
66206;BME280;53009;52.490;4.976;2024-02-26T13:05:11;156200;;;6.9;7.9
66206;BME280;53009;52.490;4.976;2024-02-26T13:10:10;156200;;;6.9;8.1
66206;BME280;53009;52.490;4.976;2024-02-26T13:15:13;156200;;;7;8
66206;BME280;53009;52.490;4.976;2024-02-26T13:20:10;156200;;;6.9;8.3
66206;BME280;53009;52.490;4.976;2024-02-26T13:25:10;156200;;;6.9;8
66206;BME280;53009;52.490;4.976;2024-02-26T13:30:13;156200;;;7;8
66206;BME280;53009;52.490;4.976;2024-02-26T13:35:11;156200;;;7;8
66206;BME280;53009;52.490;4.976;2024-02-26T13:40:10;156200;;;6.9;7.8
66206;BME280;53009;52.490;4.976;2024-02-26T13:45:10;156200;;;7.1;7.8
66206;BME280;53009;52.490;4.976;2024-02-26T13:50:12;156200;;;7.1;7.8
66206;BME280;53009;52.490;4.976;2024-02-26T13:55:10;156100;;;7.2;7.5
66206;BME280;53009;52.490;4.976;2024-02-26T14:00:11;156100;;;7.2;7.5
66206;BME280;53009;52.490;4.976;2024-02-26T14:05:10;156100;;;7.4;7.8
66206;BME280;53009;52.490;4.976;2024-02-26T14:10:11;156100;;;7.3;7.5
66206;BME280;53009;52.490;4.976;2024-02-26T14:15:10;156100;;;7.3;8
66206;BME280;53009;52.490;4.976;2024-02-26T14:20:10;156100;;;7.2;7.6
66206;BME280;53009;52.490;4.976;2024-02-26T14:25:13;156100;;;7.3;7.8
66206;BME280;53009;52.490;4.976;2024-02-26T14:30:11;156100;;;7.3;7.6
66206;BME280;53009;52.490;4.976;2024-02-26T14:35:10;156100;;;7.3;7.7
66206;BME280;53009;52.490;4.976;2024-02-26T14:40:10;156100;;;7.2;7.3
66206;BME280;53009;52.490;4.976;2024-02-26T14:45:10;156100;;;7.2;7.7
66206;BME280;53009;52.490;4.976;2024-02-26T14:50:10;156100;;;7.1;7.8
66206;BME280;53009;52.490;4.976;2024-02-26T14:55:10;156100;;;7;7.7
66206;BME280;53009;52.490;4.976;2024-02-26T15:00:10;156100;;;7;7.7
66206;BME280;53009;52.490;4.976;2024-02-26T15:05:10;156100;;;6.9;7.9
66206;BME280;53009;52.490;4.976;2024-02-26T15:10:10;156100;;;7;7.8
66206;BME280;53009;52.490;4.976;2024-02-26T15:15:10;156100;;;7;7.9
66206;BME280;53009;52.490;4.976;2024-02-26T15:20:10;156100;;;6.7;8
66206;BME280;53009;52.490;4.976;2024-02-26T15:25:10;156100;;;6.7;8.1
66206;BME280;53009;52.490;4.976;2024-02-26T15:30:11;156100;;;6.6;8.3
66206;BME280;53009;52.490;4.976;2024-02-26T15:35:10;156100;;;6.5;8.2
66206;BME280;53009;52.490;4.976;2024-02-26T15:40:10;156100;;;6.5;8.3
66206;BME280;53009;52.490;4.976;2024-02-26T15:45:10;156100;;;6.4;8.3
66206;BME280;53009;52.490;4.976;2024-02-26T15:50:10;156100;;;6.5;8.2
66206;BME280;53009;52.490;4.976;2024-02-26T15:55:11;156000;;;6.5;8.3
66206;BME280;53009;52.490;4.976;2024-02-26T16:00:11;156000;;;6.5;8.5
66206;BME280;53009;52.490;4.976;2024-02-26T16:05:10;156000;;;6.4;8.2
66206;BME280;53009;52.490;4.976;2024-02-26T16:10:10;156000;;;6.4;8.3
66206;BME280;53009;52.490;4.976;2024-02-26T16:15:10;156000;;;6.4;8.2
66206;BME280;53009;52.490;4.976;2024-02-26T16:20:11;156100;;;6.4;8.3
66206;BME280;53009;52.490;4.976;2024-02-26T16:25:10;156100;;;6.3;8.5
66206;BME280;53009;52.490;4.976;2024-02-26T16:30:11;156100;;;6.2;8.5
66206;BME280;53009;52.490;4.976;2024-02-26T16:35:10;156100;;;6.2;8.6
66206;BME280;53009;52.490;4.976;2024-02-26T16:40:12;156100;;;6.2;8.6
66206;BME280;53009;52.490;4.976;2024-02-26T16:45:10;156100;;;6.1;8.5
66206;BME280;53009;52.490;4.976;2024-02-26T16:50:11;156200;;;6.1;8.4
66206;BME280;53009;52.490;4.976;2024-02-26T16:55:10;156200;;;6;8.6
66206;BME280;53009;52.490;4.976;2024-02-26T17:00:11;156200;;;6;8.8
66206;BME280;53009;52.490;4.976;2024-02-26T17:05:10;156200;;;6;8.5
66206;BME280;53009;52.490;4.976;2024-02-26T17:10:10;156200;;;6;8.6
66206;BME280;53009;52.490;4.976;2024-02-26T17:15:10;156200;;;6;8.6
66206;BME280;53009;52.490;4.976;2024-02-26T17:20:11;156200;;;5.9;8.8
66206;BME280;53009;52.490;4.976;2024-02-26T17:25:11;156200;;;5.8;8.7
66206;BME280;53009;52.490;4.976;2024-02-26T17:30:11;156200;;;5.8;8.9
66206;BME280;53009;52.490;4.976;2024-02-26T17:35:10;156300;;;5.8;8.7
66206;BME280;53009;52.490;4.976;2024-02-26T17:40:11;156300;;;5.8;8.9
66206;BME280;53009;52.490;4.976;2024-02-26T17:45:10;156300;;;5.7;8.8
66206;BME280;53009;52.490;4.976;2024-02-26T17:50:11;156300;;;5.7;8.9
66206;BME280;53009;52.490;4.976;2024-02-26T17:55:11;156300;;;5.7;8.9
66206;BME280;53009;52.490;4.976;2024-02-26T18:00:11;156300;;;5.6;8.9
66206;BME280;53009;52.490;4.976;2024-02-26T18:05:11;156300;;;5.7;9
66206;BME280;53009;52.490;4.976;2024-02-26T18:10:11;156300;;;5.7;9
66206;BME280;53009;52.490;4.976;2024-02-26T18:15:10;156300;;;5.7;9
66206;BME280;53009;52.490;4.976;2024-02-26T18:20:11;156300;;;5.7;9.1
66206;BME280;53009;52.490;4.976;2024-02-26T18:25:11;156300;;;5.6;9
66206;BME280;53009;52.490;4.976;2024-02-26T18:30:11;156200;;;5.6;9
66206;BME280;53009;52.490;4.976;2024-02-26T18:35:11;156200;;;5.6;9
66206;BME280;53009;52.490;4.976;2024-02-26T18:40:11;156200;;;5.6;9
66206;BME280;53009;52.490;4.976;2024-02-26T18:45:11;156200;;;5.6;9
66206;BME280;53009;52.490;4.976;2024-02-26T18:50:11;156200;;;5.5;9
66206;BME280;53009;52.490;4.976;2024-02-26T18:55:11;156200;;;5.5;9
66206;BME280;53009;52.490;4.976;2024-02-26T19:00:11;156200;;;5.5;9.1
66206;BME280;53009;52.490;4.976;2024-02-26T19:05:11;156200;;;5.5;9
66206;BME280;53009;52.490;4.976;2024-02-26T19:10:11;156200;;;5.4;9
66206;BME280;53009;52.490;4.976;2024-02-26T19:15:11;156200;;;5.4;9.1
66206;BME280;53009;52.490;4.976;2024-02-26T19:20:11;156200;;;5.4;9.1
66206;BME280;53009;52.490;4.976;2024-02-26T19:25:12;156200;;;5.4;9.1
66206;BME280;53009;52.490;4.976;2024-02-26T19:30:11;156200;;;5.3;9.2
66206;BME280;53009;52.490;4.976;2024-02-26T19:35:11;156200;;;5.3;9.2
66206;BME280;53009;52.490;4.976;2024-02-26T19:40:11;156200;;;5.3;9.2
66206;BME280;53009;52.490;4.976;2024-02-26T19:45:11;156200;;;5.3;9.2
66206;BME280;53009;52.490;4.976;2024-02-26T19:50:11;156200;;;5.3;9.2
66206;BME280;53009;52.490;4.976;2024-02-26T19:55:12;156200;;;5.3;9.3
66206;BME280;53009;52.490;4.976;2024-02-26T20:00:11;156200;;;5.3;9.3
66206;BME280;53009;52.490;4.976;2024-02-26T20:05:11;156200;;;5.2;9.2
66206;BME280;53009;52.490;4.976;2024-02-26T20:10:11;156200;;;5.2;9.3
66206;BME280;53009;52.490;4.976;2024-02-26T20:15:11;156200;;;5.2;9.3
66206;BME280;53009;52.490;4.976;2024-02-26T20:20:11;156200;;;5.2;9.3
66206;BME280;53009;52.490;4.976;2024-02-26T20:25:11;156200;;;5.2;9.3
66206;BME280;53009;52.490;4.976;2024-02-26T20:30:11;156100;;;5.2;9.4
66206;BME280;53009;52.490;4.976;2024-02-26T20:35:11;156100;;;5.2;9.4
66206;BME280;53009;52.490;4.976;2024-02-26T20:40:11;156100;;;5.2;9.4
66206;BME280;53009;52.490;4.976;2024-02-26T20:45:11;156100;;;5.1;9.4
66206;BME280;53009;52.490;4.976;2024-02-26T20:50:11;156100;;;5.1;9.4
66206;BME280;53009;52.490;4.976;2024-02-26T20:55:11;156100;;;5.1;9.4
66206;BME280;53009;52.490;4.976;2024-02-26T21:00:11;156100;;;5.1;9.4
66206;BME280;53009;52.490;4.976;2024-02-26T21:05:14;156100;;;5.1;9.4
66206;BME280;53009;52.490;4.976;2024-02-26T21:10:11;156100;;;5.1;9.4
66206;BME280;53009;52.490;4.976;2024-02-26T21:15:11;156100;;;5.1;9.4
66206;BME280;53009;52.490;4.976;2024-02-26T21:20:11;156100;;;5.1;9.4
66206;BME280;53009;52.490;4.976;2024-02-26T21:25:11;156100;;;5.1;9.4
66206;BME280;53009;52.490;4.976;2024-02-26T21:30:11;156100;;;5.1;9.4
66206;BME280;53009;52.490;4.976;2024-02-26T21:35:11;156100;;;5.1;9.5
66206;BME280;53009;52.490;4.976;2024-02-26T21:40:11;156100;;;5;9.5
66206;BME280;53009;52.490;4.976;2024-02-26T21:45:11;156100;;;5;9.5
66206;BME280;53009;52.490;4.976;2024-02-26T21:50:11;156000;;;5;9.5
66206;BME280;53009;52.490;4.976;2024-02-26T21:55:11;156100;;;5;9.5
66206;BME280;53009;52.490;4.976;2024-02-26T22:00:11;156000;;;5;9.6
66206;BME280;53009;52.490;4.976;2024-02-26T22:05:14;156000;;;5;9.5
66206;BME280;53009;52.490;4.976;2024-02-26T22:10:11;156000;;;5;9.6
66206;BME280;53009;52.490;4.976;2024-02-26T22:15:11;156000;;;4.9;9.5
66206;BME280;53009;52.490;4.976;2024-02-26T22:20:11;156000;;;4.9;9.6
66206;BME280;53009;52.490;4.976;2024-02-26T22:25:11;156000;;;4.9;9.5
66206;BME280;53009;52.490;4.976;2024-02-26T22:30:11;156000;;;4.9;9.6
66206;BME280;53009;52.490;4.976;2024-02-26T22:35:11;155900;;;4.9;9.5
66206;BME280;53009;52.490;4.976;2024-02-26T22:40:11;155900;;;4.9;9.6
66206;BME280;53009;52.490;4.976;2024-02-26T22:45:11;155900;;;4.9;9.7
66206;BME280;53009;52.490;4.976;2024-02-26T22:50:11;155900;;;4.9;9.6
66206;BME280;53009;52.490;4.976;2024-02-26T22:55:11;155900;;;4.9;9.6
66206;BME280;53009;52.490;4.976;2024-02-26T23:00:14;155900;;;4.8;9.6
66206;BME280;53009;52.490;4.976;2024-02-26T23:05:11;155900;;;4.8;9.6
66206;BME280;53009;52.490;4.976;2024-02-26T23:10:11;155900;;;4.8;9.6
66206;BME280;53009;52.490;4.976;2024-02-26T23:15:11;155900;;;4.8;9.7
66206;BME280;53009;52.490;4.976;2024-02-26T23:20:12;155900;;;4.8;9.6
66206;BME280;53009;52.490;4.976;2024-02-26T23:25:11;155900;;;4.8;9.7
66206;BME280;53009;52.490;4.976;2024-02-26T23:30:11;155900;;;4.8;9.7
66206;BME280;53009;52.490;4.976;2024-02-26T23:35:11;155900;;;4.8;9.7
66206;BME280;53009;52.490;4.976;2024-02-26T23:40:11;155900;;;4.8;9.8
66206;BME280;53009;52.490;4.976;2024-02-26T23:45:11;155800;;;4.8;9.8
66206;BME280;53009;52.490;4.976;2024-02-26T23:50:11;155800;;;4.7;9.8
66206;BME280;53009;52.490;4.976;2024-02-26T23:55:11;155800;;;4.7;9.9
